DBDHM EDDS-LIML
Flight info
| Callsign | DBDHM |
|---|---|
| Flight time | 0h 44m |
| Altitude | 45000 |
| Route | ROTWE5B/25 ROTWE Y126 TUBLO N850 NATOR DCT TRA DCT RIPUS DCT GERSA DCT SOSON DCT ODINA ODINA1Y |
| Aircraft | C700/M-SBDGHM1RWXY/LB2 |
Departure
| Time | 2026-05-05 15:44 |
|---|---|
| Airport | Stuttgart Airport (EDDS) |
Arrival
| Time | 2026-05-05 16:29 |
|---|---|
| Airport | Milano Linate Airport (LIML) |
| Time | Latitude | Longitude | Altitude | Speed | Heading |
|---|---|---|---|---|---|
| 2026-05-05 15:28 | 48.69161 | 9.21068 | 1280 ft | 0 kts | 356° |
| 2026-05-05 15:38 | 48.69162 | 9.21068 | 1280 ft | 0 kts | 356° |
| 2026-05-05 15:38 | 48.69178 | 9.21063 | 1280 ft | 4 kts | 333° |
| 2026-05-05 15:38 | 48.69176 | 9.21018 | 1282 ft | 6 kts | 257° |
| 2026-05-05 15:38 | 48.69146 | 9.20964 | 1280 ft | 8 kts | 193° |
| 2026-05-05 15:39 | 48.69096 | 9.21020 | 1280 ft | 11 kts | 140° |
| 2026-05-05 15:39 | 48.69089 | 9.21029 | 1280 ft | 0 kts | 140° |
| 2026-05-05 15:40 | 48.69081 | 9.21039 | 1280 ft | 7 kts | 140° |
| 2026-05-05 15:40 | 48.69053 | 9.21178 | 1281 ft | 21 kts | 73° |
| 2026-05-05 15:40 | 48.69098 | 9.21406 | 1280 ft | 24 kts | 73° |
| 2026-05-05 15:41 | 48.69146 | 9.21654 | 1280 ft | 25 kts | 73° |
| 2026-05-05 15:41 | 48.69184 | 9.21859 | 1280 ft | 17 kts | 75° |
| 2026-05-05 15:41 | 48.69211 | 9.21999 | 1281 ft | 12 kts | 73° |
| 2026-05-05 15:41 | 48.69238 | 9.22144 | 1282 ft | 16 kts | 74° |
| 2026-05-05 15:42 | 48.69270 | 9.22314 | 1281 ft | 17 kts | 74° |
| 2026-05-05 15:42 | 48.69296 | 9.22448 | 1281 ft | 12 kts | 73° |
| 2026-05-05 15:42 | 48.69322 | 9.22584 | 1281 ft | 15 kts | 75° |
| 2026-05-05 15:42 | 48.69353 | 9.22750 | 1282 ft | 18 kts | 73° |
| 2026-05-05 15:43 | 48.69389 | 9.22942 | 1280 ft | 20 kts | 74° |
| 2026-05-05 15:43 | 48.69400 | 9.23122 | 1281 ft | 16 kts | 118° |
| 2026-05-05 15:43 | 48.69349 | 9.23156 | 1280 ft | 11 kts | 163° |
| 2026-05-05 15:43 | 48.69255 | 9.23201 | 1281 ft | 18 kts | 160° |
| 2026-05-05 15:44 | 48.69173 | 9.23177 | 1280 ft | 12 kts | 259° |
| 2026-05-05 15:44 | 48.69074 | 9.22647 | 1282 ft | 104 kts | 255° |
| 2026-05-05 15:44 | 48.68787 | 9.21144 | 1439 ft | 188 kts | 254° |
| 2026-05-05 15:44 | 48.68368 | 9.18975 | 2387 ft | 235 kts | 254° |
| 2026-05-05 15:45 | 48.67943 | 9.16655 | 3565 ft | 219 kts | 255° |
| 2026-05-05 15:45 | 48.67587 | 9.14468 | 4606 ft | 219 kts | 253° |
| 2026-05-05 15:45 | 48.67134 | 9.12070 | 5633 ft | 249 kts | 252° |
| 2026-05-05 15:45 | 48.66641 | 9.09574 | 7510 ft | 246 kts | 251° |
| 2026-05-05 15:46 | 48.66146 | 9.07040 | 9230 ft | 255 kts | 251° |
| 2026-05-05 15:46 | 48.65634 | 9.04390 | 10747 ft | 272 kts | 252° |
| 2026-05-05 15:46 | 48.65081 | 9.01546 | 12023 ft | 294 kts | 252° |
| 2026-05-05 15:46 | 48.64452 | 8.98549 | 13579 ft | 310 kts | 246° |
| 2026-05-05 15:47 | 48.63154 | 8.95713 | 13827 ft | 338 kts | 226° |
| 2026-05-05 15:47 | 48.61986 | 8.94167 | 13828 ft | 333 kts | 219° |
| 2026-05-05 15:47 | 48.59539 | 8.91425 | 13824 ft | 323 kts | 218° |
| 2026-05-05 15:47 | 48.57841 | 8.89307 | 13825 ft | 321 kts | 223° |
| 2026-05-05 15:48 | 48.56251 | 8.86928 | 14472 ft | 315 kts | 226° |
| 2026-05-05 15:48 | 48.54703 | 8.84619 | 15970 ft | 316 kts | 223° |
| 2026-05-05 15:48 | 48.53052 | 8.82335 | 17118 ft | 325 kts | 221° |
| 2026-05-05 15:48 | 48.51359 | 8.80009 | 18291 ft | 332 kts | 222° |
| 2026-05-05 15:49 | 48.49671 | 8.77616 | 19290 ft | 339 kts | 222° |
| 2026-05-05 15:49 | 48.47932 | 8.75147 | 20289 ft | 345 kts | 222° |
| 2026-05-05 15:49 | 48.46152 | 8.72657 | 21236 ft | 351 kts | 221° |
| 2026-05-05 15:49 | 48.44348 | 8.70139 | 22169 ft | 356 kts | 221° |
| 2026-05-05 15:50 | 48.42532 | 8.67602 | 23099 ft | 363 kts | 221° |
| 2026-05-05 15:50 | 48.40666 | 8.64996 | 24055 ft | 367 kts | 221° |
| 2026-05-05 15:50 | 48.38777 | 8.62353 | 24963 ft | 372 kts | 221° |
| 2026-05-05 15:50 | 48.36860 | 8.59677 | 25787 ft | 379 kts | 221° |
| 2026-05-05 15:51 | 48.34915 | 8.56965 | 26658 ft | 384 kts | 221° |
| 2026-05-05 15:51 | 48.32939 | 8.54215 | 27529 ft | 388 kts | 221° |
| 2026-05-05 15:51 | 48.30974 | 8.51481 | 28413 ft | 392 kts | 221° |
| 2026-05-05 15:51 | 48.28960 | 8.48683 | 29230 ft | 397 kts | 221° |
| 2026-05-05 15:52 | 48.26918 | 8.45849 | 30011 ft | 402 kts | 221° |
| 2026-05-05 15:52 | 48.24850 | 8.42982 | 30682 ft | 406 kts | 221° |
| 2026-05-05 15:52 | 48.22749 | 8.40112 | 31339 ft | 410 kts | 218° |
| 2026-05-05 15:52 | 48.20408 | 8.37651 | 31970 ft | 412 kts | 209° |
| 2026-05-05 15:53 | 48.17824 | 8.35763 | 32589 ft | 414 kts | 200° |
| 2026-05-05 15:53 | 48.15062 | 8.34512 | 33234 ft | 416 kts | 191° |
| 2026-05-05 15:53 | 48.12235 | 8.33933 | 34072 ft | 412 kts | 184° |
| 2026-05-05 15:53 | 48.09367 | 8.34023 | 34728 ft | 412 kts | 175° |
| 2026-05-05 15:54 | 48.06528 | 8.34667 | 35391 ft | 412 kts | 172° |
| 2026-05-05 15:54 | 48.03699 | 8.35358 | 36031 ft | 411 kts | 172° |
| 2026-05-05 15:54 | 48.00879 | 8.36032 | 36632 ft | 411 kts | 173° |
| 2026-05-05 15:54 | 47.98051 | 8.36711 | 37221 ft | 410 kts | 173° |
| 2026-05-05 15:55 | 47.95237 | 8.37393 | 37779 ft | 410 kts | 173° |
| 2026-05-05 15:55 | 47.92423 | 8.38073 | 38326 ft | 409 kts | 173° |
| 2026-05-05 15:55 | 47.89646 | 8.38741 | 38713 ft | 410 kts | 173° |
| 2026-05-05 15:55 | 47.86818 | 8.39418 | 39026 ft | 412 kts | 173° |
| 2026-05-05 15:56 | 47.83983 | 8.40099 | 39377 ft | 413 kts | 173° |
| 2026-05-05 15:56 | 47.81142 | 8.40782 | 39707 ft | 414 kts | 173° |
| 2026-05-05 15:56 | 47.78296 | 8.41464 | 40025 ft | 415 kts | 173° |
| 2026-05-05 15:56 | 47.75447 | 8.42145 | 40331 ft | 416 kts | 173° |
| 2026-05-05 15:57 | 47.72586 | 8.42828 | 40626 ft | 417 kts | 173° |
| 2026-05-05 15:57 | 47.69718 | 8.43514 | 40920 ft | 417 kts | 173° |
| 2026-05-05 15:57 | 47.66836 | 8.44024 | 41219 ft | 417 kts | 177° |
| 2026-05-05 15:57 | 47.63937 | 8.44433 | 41519 ft | 418 kts | 177° |
| 2026-05-05 15:58 | 47.61040 | 8.44857 | 41807 ft | 419 kts | 176° |
| 2026-05-05 15:58 | 47.58135 | 8.45296 | 42081 ft | 420 kts | 176° |
| 2026-05-05 15:58 | 47.55228 | 8.45728 | 42362 ft | 421 kts | 177° |
| 2026-05-05 15:58 | 47.52313 | 8.46152 | 42648 ft | 421 kts | 177° |
| 2026-05-05 15:59 | 47.49433 | 8.46574 | 42900 ft | 422 kts | 177° |
| 2026-05-05 15:59 | 47.46505 | 8.47005 | 43176 ft | 422 kts | 177° |
| 2026-05-05 15:59 | 47.43576 | 8.47436 | 43224 ft | 420 kts | 177° |
| 2026-05-05 15:59 | 47.40662 | 8.47865 | 42886 ft | 412 kts | 177° |
| 2026-05-05 16:00 | 47.37834 | 8.48280 | 42873 ft | 408 kts | 177° |
| 2026-05-05 16:00 | 47.32139 | 8.49104 | 42889 ft | 421 kts | 177° |
| 2026-05-05 16:01 | 47.26207 | 8.49973 | 42884 ft | 434 kts | 177° |
| 2026-05-05 16:01 | 47.20091 | 8.50863 | 42867 ft | 447 kts | 176° |
| 2026-05-05 16:02 | 47.14885 | 8.51622 | 42866 ft | 457 kts | 176° |
| 2026-05-05 16:02 | 47.07456 | 8.52701 | 42852 ft | 462 kts | 176° |
| 2026-05-05 16:03 | 47.02101 | 8.53477 | 42332 ft | 464 kts | 176° |
| 2026-05-05 16:03 | 46.98929 | 8.53934 | 41739 ft | 461 kts | 177° |
| 2026-05-05 16:03 | 46.95747 | 8.54395 | 41154 ft | 455 kts | 177° |
| 2026-05-05 16:03 | 46.92622 | 8.54847 | 40554 ft | 446 kts | 177° |
| 2026-05-05 16:04 | 46.89570 | 8.55287 | 39985 ft | 435 kts | 177° |
| 2026-05-05 16:04 | 46.86584 | 8.55714 | 39428 ft | 426 kts | 178° |
| 2026-05-05 16:04 | 46.83654 | 8.56134 | 38865 ft | 421 kts | 178° |
| 2026-05-05 16:04 | 46.80743 | 8.56551 | 38285 ft | 418 kts | 178° |
| 2026-05-05 16:05 | 46.77894 | 8.56959 | 37700 ft | 415 kts | 179° |
| 2026-05-05 16:05 | 46.75015 | 8.57370 | 37184 ft | 418 kts | 179° |
| 2026-05-05 16:05 | 46.72095 | 8.57785 | 36643 ft | 423 kts | 179° |
| 2026-05-05 16:05 | 46.69147 | 8.58205 | 36077 ft | 427 kts | 179° |
| 2026-05-05 16:06 | 46.66186 | 8.58631 | 35512 ft | 426 kts | 179° |
| 2026-05-05 16:06 | 46.63269 | 8.59050 | 34970 ft | 423 kts | 180° |
| 2026-05-05 16:06 | 46.60341 | 8.59468 | 34410 ft | 420 kts | 181° |
| 2026-05-05 16:06 | 46.57434 | 8.59878 | 33862 ft | 417 kts | 181° |
| 2026-05-05 16:07 | 46.54549 | 8.60286 | 33288 ft | 413 kts | 181° |
| 2026-05-05 16:07 | 46.51717 | 8.60686 | 32742 ft | 415 kts | 181° |
| 2026-05-05 16:07 | 46.48823 | 8.61093 | 32204 ft | 420 kts | 181° |
| 2026-05-05 16:07 | 46.45870 | 8.61508 | 31652 ft | 427 kts | 181° |
| 2026-05-05 16:08 | 46.42882 | 8.61934 | 31077 ft | 433 kts | 181° |
| 2026-05-05 16:08 | 46.39869 | 8.62362 | 30509 ft | 436 kts | 181° |
| 2026-05-05 16:08 | 46.36887 | 8.62783 | 29940 ft | 436 kts | 181° |
| 2026-05-05 16:08 | 46.33865 | 8.63210 | 29336 ft | 432 kts | 180° |
| 2026-05-05 16:09 | 46.30891 | 8.63632 | 28773 ft | 426 kts | 180° |
| 2026-05-05 16:09 | 46.27951 | 8.64043 | 28216 ft | 421 kts | 180° |
| 2026-05-05 16:09 | 46.25043 | 8.64448 | 27656 ft | 417 kts | 180° |
| 2026-05-05 16:09 | 46.22207 | 8.64848 | 27138 ft | 412 kts | 180° |
| 2026-05-05 16:10 | 46.19374 | 8.65248 | 26591 ft | 406 kts | 180° |
| 2026-05-05 16:10 | 46.16554 | 8.65639 | 26057 ft | 406 kts | 180° |
| 2026-05-05 16:10 | 46.13731 | 8.66062 | 25505 ft | 408 kts | 178° |
| 2026-05-05 16:10 | 46.10942 | 8.66936 | 24967 ft | 410 kts | 170° |
| 2026-05-05 16:11 | 46.08245 | 8.68336 | 24423 ft | 412 kts | 162° |
| 2026-05-05 16:11 | 46.00764 | 8.74083 | 22748 ft | 402 kts | 158° |
| 2026-05-05 16:12 | 45.98300 | 8.75997 | 22244 ft | 401 kts | 157° |
| 2026-05-05 16:12 | 45.93484 | 8.79772 | 21204 ft | 382 kts | 157° |
| 2026-05-05 16:13 | 45.86984 | 8.84831 | 19799 ft | 330 kts | 158° |
| 2026-05-05 16:13 | 45.85020 | 8.86356 | 19379 ft | 318 kts | 158° |
| 2026-05-05 16:13 | 45.83079 | 8.87867 | 18961 ft | 311 kts | 158° |
| 2026-05-05 16:14 | 45.79296 | 8.90792 | 18125 ft | 311 kts | 158° |
| 2026-05-05 16:14 | 45.75483 | 8.93749 | 17290 ft | 311 kts | 157° |
| 2026-05-05 16:15 | 45.71660 | 8.96704 | 16461 ft | 318 kts | 157° |
| 2026-05-05 16:15 | 45.67480 | 8.99916 | 15568 ft | 366 kts | 156° |
| 2026-05-05 16:16 | 45.62963 | 9.03424 | 14579 ft | 366 kts | 156° |
| 2026-05-05 16:16 | 45.58517 | 9.06826 | 13585 ft | 358 kts | 156° |
| 2026-05-05 16:17 | 45.54178 | 9.10154 | 12639 ft | 353 kts | 155° |
| 2026-05-05 16:17 | 45.51982 | 9.11722 | 12166 ft | 350 kts | 161° |
| 2026-05-05 16:18 | 45.47325 | 9.13102 | 11589 ft | 337 kts | 179° |
| 2026-05-05 16:18 | 45.45011 | 9.13348 | 11367 ft | 326 kts | 178° |
| 2026-05-05 16:18 | 45.40769 | 9.13843 | 10724 ft | 293 kts | 178° |
| 2026-05-05 16:19 | 45.38791 | 9.14060 | 10539 ft | 276 kts | 178° |
| 2026-05-05 16:19 | 45.36873 | 9.14271 | 9922 ft | 279 kts | 178° |
| 2026-05-05 16:19 | 45.33012 | 9.14703 | 8778 ft | 274 kts | 178° |
| 2026-05-05 16:20 | 45.29274 | 9.15122 | 7631 ft | 268 kts | 178° |
| 2026-05-05 16:20 | 45.25592 | 9.15533 | 6496 ft | 259 kts | 177° |
| 2026-05-05 16:21 | 45.21985 | 9.15936 | 5272 ft | 259 kts | 177° |
| 2026-05-05 16:22 | 45.16702 | 9.17075 | 3484 ft | 261 kts | 148° |
| 2026-05-05 16:22 | 45.15202 | 9.21413 | 2992 ft | 250 kts | 89° |
| 2026-05-05 16:23 | 45.16764 | 9.25686 | 2991 ft | 259 kts | 38° |
| 2026-05-05 16:23 | 45.18216 | 9.27171 | 3006 ft | 251 kts | 34° |
| 2026-05-05 16:23 | 45.20945 | 9.29640 | 2984 ft | 214 kts | 20° |
| 2026-05-05 16:24 | 45.22372 | 9.30001 | 2992 ft | 207 kts | 1° |
| 2026-05-05 16:24 | 45.23805 | 9.29933 | 3000 ft | 210 kts | 356° |
| 2026-05-05 16:24 | 45.26770 | 9.29611 | 3010 ft | 214 kts | 355° |
| 2026-05-05 16:25 | 45.28262 | 9.29458 | 3010 ft | 213 kts | 354° |
| 2026-05-05 16:25 | 45.31183 | 9.29147 | 2807 ft | 199 kts | 355° |
| 2026-05-05 16:25 | 45.32499 | 9.28993 | 2533 ft | 180 kts | 355° |
| 2026-05-05 16:26 | 45.34843 | 9.28750 | 2074 ft | 164 kts | 356° |
| 2026-05-05 16:26 | 45.36942 | 9.28522 | 1680 ft | 145 kts | 357° |
| 2026-05-05 16:27 | 45.37936 | 9.28414 | 1478 ft | 142 kts | 357° |
| 2026-05-05 16:27 | 45.38929 | 9.28308 | 1292 ft | 145 kts | 357° |
| 2026-05-05 16:27 | 45.39931 | 9.28200 | 1067 ft | 143 kts | 358° |
| 2026-05-05 16:27 | 45.40933 | 9.28090 | 874 ft | 146 kts | 358° |
| 2026-05-05 16:28 | 45.41940 | 9.27985 | 668 ft | 145 kts | 358° |
| 2026-05-05 16:28 | 45.42941 | 9.27872 | 491 ft | 141 kts | 357° |
| 2026-05-05 16:28 | 45.43859 | 9.27766 | 364 ft | 120 kts | 359° |
| 2026-05-05 16:28 | 45.44565 | 9.27701 | 356 ft | 80 kts | 356° |
| 2026-05-05 16:29 | 45.44865 | 9.27647 | 354 ft | 17 kts | 319° |
| 2026-05-05 16:29 | 45.44953 | 9.27501 | 353 ft | 22 kts | 309° |
| 2026-05-05 16:29 | 45.45044 | 9.27312 | 357 ft | 25 kts | 300° |
| 2026-05-05 16:29 | 45.45122 | 9.27077 | 360 ft | 27 kts | 292° |
| 2026-05-05 16:30 | 45.45168 | 9.26870 | 355 ft | 19 kts | 271° |
| 2026-05-05 16:30 | 45.45168 | 9.26718 | 356 ft | 10 kts | 293° |
| 2026-05-05 16:30 | 45.45205 | 9.26605 | 356 ft | 15 kts | 294° |
| 2026-05-05 16:30 | 45.45254 | 9.26452 | 358 ft | 19 kts | 295° |
| 2026-05-05 16:31 | 45.45315 | 9.26356 | 356 ft | 14 kts | 328° |
| 2026-05-05 16:31 | 45.45360 | 9.26325 | 358 ft | 0 kts | 335° |
| 2026-05-05 16:31 | 45.45383 | 9.26305 | 361 ft | 8 kts | 316° |
| 2026-05-05 16:31 | 45.45376 | 9.26260 | 360 ft | 0 kts | 240° |
| 2026-05-05 16:32 | 45.45370 | 9.26242 | 358 ft | 0 kts | 248° |
| 2026-05-05 16:32 | 45.45369 | 9.26236 | 357 ft | 0 kts | 249° |